Time;durP1;ratioP1;P1;durP2;ratioP2;P2;SDS_P1;SDS_P2;PMS_P1;PMS_P2;Temp;Humidity;BMP_temperature;BMP_pressure;BME280_temperature;BME280_humidity;BME280_pressure;Samples;Min_cycle;Max_cycle;Signal;HPM_P1;HPM_P2
2024/04/13 00:01:19;;;;;;;4.57;1.83;;;8.10;99.90;;;;;;5226786;27;20338;-65
2024/04/13 00:03:50;;;;;;;2.50;1.70;;;8.10;99.90;;;;;;5223535;27;20238;-66
2024/04/13 00:06:16;;;;;;;2.87;1.53;;;8.00;99.90;;;;;;5240199;27;20234;-65
2024/04/13 00:08:41;;;;;;;2.07;1.10;;;8.00;99.90;;;;;;5239263;27;20238;-64
2024/04/13 00:11:08;;;;;;;1.53;1.07;;;7.90;99.90;;;;;;5239639;27;20347;-64
2024/04/13 00:13:33;;;;;;;2.67;1.07;;;7.90;99.90;;;;;;5240028;27;20280;-64
2024/04/13 00:15:59;;;;;;;3.47;1.53;;;7.90;99.90;;;;;;5239752;27;20300;-66
2024/04/13 00:18:25;;;;;;;1.97;1.13;;;7.90;99.90;;;;;;5239588;27;20423;-65
2024/04/13 00:20:50;;;;;;;3.83;2.07;;;7.80;99.90;;;;;;5233640;27;20241;-64
2024/04/13 00:23:16;;;;;;;1.27;0.90;;;7.80;99.90;;;;;;5216618;27;20238;-63
2024/04/13 00:25:41;;;;;;;1.73;1.27;;;7.80;99.90;;;;;;5239665;27;20249;-63
2024/04/13 00:28:07;;;;;;;2.30;1.73;;;7.80;99.90;;;;;;5239826;27;20738;-65
2024/04/13 00:30:33;;;;;;;2.07;1.03;;;7.80;99.90;;;;;;5238554;27;20284;-64
2024/04/13 00:32:59;;;;;;;1.97;1.17;;;7.80;99.90;;;;;;5239731;27;20241;-66
2024/04/13 00:35:24;;;;;;;1.97;1.20;;;7.70;99.90;;;;;;5239339;27;20229;-64
2024/04/13 00:37:50;;;;;;;2.60;1.60;;;7.70;99.90;;;;;;5261047;27;20245;-66
2024/04/13 00:40:16;;;;;;;2.07;1.33;;;7.70;99.90;;;;;;5229651;27;20347;-64
2024/04/13 00:42:42;;;;;;;4.03;1.63;;;7.60;99.90;;;;;;5237568;27;20233;-64
2024/04/13 00:45:08;;;;;;;1.87;1.33;;;7.70;99.90;;;;;;5231339;27;20723;-64
2024/04/13 00:47:36;;;;;;;2.67;1.70;;;7.60;99.90;;;;;;5219841;27;20730;-65
2024/04/13 00:50:11;;;;;;;2.00;1.17;;;7.60;99.90;;;;;;5238668;27;20241;-64
2024/04/13 00:52:38;;;;;;;1.97;1.50;;;7.60;99.90;;;;;;5237246;27;20614;-64
2024/04/13 00:55:04;;;;;;;3.53;1.60;;;7.70;99.90;;;;;;5239402;27;20280;-64
2024/04/13 00:57:30;;;;;;;2.33;1.37;;;7.70;99.90;;;;;;5265675;27;20640;-63
2024/04/13 00:59:56;;;;;;;2.50;1.73;;;7.70;99.90;;;;;;5238303;27;20246;-64
2024/04/13 01:02:24;;;;;;;3.63;2.20;;;7.80;99.90;;;;;;5239101;27;20268;-65
2024/04/13 01:04:50;;;;;;;2.27;1.40;;;7.80;99.90;;;;;;5238942;27;20238;-66
2024/04/13 01:07:17;;;;;;;3.30;1.80;;;7.80;99.90;;;;;;5238949;27;20249;-65
2024/04/13 01:09:47;;;;;;;3.47;1.80;;;7.80;99.90;;;;;;5223915;27;20631;-64
2024/04/13 01:12:13;;;;;;;1.80;1.43;;;7.80;99.90;;;;;;5239336;27;20321;-64
2024/04/13 01:14:39;;;;;;;1.83;1.23;;;7.80;99.90;;;;;;5239008;27;20245;-65
2024/04/13 01:17:05;;;;;;;2.77;1.47;;;7.70;99.90;;;;;;5238863;27;20344;-63
2024/04/13 01:19:31;;;;;;;2.93;2.00;;;7.80;99.90;;;;;;5237948;27;20297;-63
2024/04/13 01:21:58;;;;;;;3.83;1.67;;;7.70;99.90;;;;;;5238796;27;20288;-63
2024/04/13 01:24:24;;;;;;;2.73;1.07;;;7.70;99.90;;;;;;5238845;27;20565;-65
2024/04/13 01:26:51;;;;;;;10.13;2.20;;;7.70;99.90;;;;;;5238484;27;20277;-65
2024/04/13 01:29:17;;;;;;;4.03;2.20;;;7.70;99.90;;;;;;5238551;27;20778;-64
2024/04/13 01:31:42;;;;;;;3.57;2.23;;;7.70;99.90;;;;;;5239035;27;20238;-64
2024/04/13 01:34:08;;;;;;;3.33;1.60;;;7.70;99.90;;;;;;5242168;27;20594;-65
2024/04/13 01:36:41;;;;;;;2.13;1.40;;;7.70;99.90;;;;;;5227762;27;20294;-67
2024/04/13 01:39:12;;;;;;;2.80;1.87;;;7.70;99.90;;;;;;5222358;27;20353;-63
2024/04/13 01:41:39;;;;;;;2.30;1.87;;;7.70;99.90;;;;;;5236724;27;20823;-64
2024/04/13 01:44:06;;;;;;;2.33;1.70;;;7.70;99.90;;;;;;5242143;27;20233;-63
2024/04/13 01:46:35;;;;;;;2.13;1.37;;;7.70;99.90;;;;;;5241906;27;20306;-63
2024/04/13 01:49:04;;;;;;;3.10;1.53;;;7.70;99.90;;;;;;5241916;27;20241;-63
2024/04/13 01:51:31;;;;;;;4.07;1.80;;;7.70;99.90;;;;;;5241393;27;20332;-64
2024/04/13 01:53:56;;;;;;;4.33;1.73;;;7.70;99.90;;;;;;5267732;27;20273;-66
2024/04/13 01:56:22;;;;;;;3.13;1.40;;;7.80;99.90;;;;;;5241609;27;20288;-65
2024/04/13 01:58:48;;;;;;;2.20;1.33;;;7.80;99.90;;;;;;5241641;27;20246;-66
2024/04/13 02:01:14;;;;;;;3.20;1.57;;;7.80;99.90;;;;;;5241041;27;20284;-66
2024/04/13 02:03:39;;;;;;;2.27;1.63;;;7.80;99.90;;;;;;5227831;27;20237;-66
2024/04/13 02:06:05;;;;;;;3.47;1.83;;;7.80;99.90;;;;;;5241843;27;20875;-66
2024/04/13 02:08:35;;;;;;;1.53;1.13;;;7.80;99.90;;;;;;5212439;27;20258;-65
2024/04/13 02:11:01;;;;;;;5.10;1.90;;;7.80;99.90;;;;;;5228208;27;20234;-66
2024/04/13 02:13:28;;;;;;;2.83;1.60;;;7.80;99.90;;;;;;5241630;27;20238;-67
2024/04/13 02:15:54;;;;;;;5.27;2.33;;;7.90;99.90;;;;;;5241333;27;20301;-67
2024/04/13 02:18:20;;;;;;;1.90;1.50;;;7.80;99.90;;;;;;5230618;27;20692;-67
2024/04/13 02:20:46;;;;;;;3.03;2.03;;;7.80;99.90;;;;;;5238586;27;20268;-67
2024/04/13 02:23:12;;;;;;;3.57;1.53;;;7.80;99.90;;;;;;5241517;27;20241;-66
2024/04/13 02:25:41;;;;;;;2.47;1.40;;;7.80;99.90;;;;;;5241119;27;20242;-67
2024/04/13 02:28:09;;;;;;;2.83;1.70;;;7.90;99.90;;;;;;5267732;27;20634;-66
2024/04/13 02:30:35;;;;;;;3.23;1.53;;;7.90;99.90;;;;;;5226562;27;20281;-66
2024/04/13 02:33:00;;;;;;;5.57;2.70;;;7.90;99.90;;;;;;5241553;27;20234;-64
2024/04/13 02:35:26;;;;;;;5.60;2.47;;;7.90;99.90;;;;;;5241182;27;20730;-64
2024/04/13 02:37:52;;;;;;;2.87;1.90;;;7.90;99.90;;;;;;5240701;27;20242;-65
2024/04/13 02:40:23;;;;;;;3.37;2.00;;;7.90;99.90;;;;;;5238963;27;20276;-64
2024/04/13 02:42:52;;;;;;;3.07;2.00;;;7.90;99.90;;;;;;5238798;27;20697;-64
2024/04/13 02:45:18;;;;;;;2.20;1.83;;;7.90;99.90;;;;;;5241251;27;20250;-64
2024/04/13 02:47:44;;;;;;;4.13;1.90;;;8.00;99.90;;;;;;5240812;27;20234;-64
2024/04/13 02:50:10;;;;;;;5.23;2.60;;;8.00;99.90;;;;;;5240662;27;20325;-64
2024/04/13 02:52:37;;;;;;;3.23;1.90;;;7.90;99.90;;;;;;5240250;27;20234;-63
2024/04/13 02:55:04;;;;;;;3.70;1.97;;;8.00;99.90;;;;;;5228336;27;20687;-64
2024/04/13 02:57:29;;;;;;;3.60;2.20;;;7.90;99.90;;;;;;5240679;27;20284;-64
2024/04/13 02:59:56;;;;;;;3.00;1.57;;;8.00;99.90;;;;;;5240360;27;20278;-64
2024/04/13 03:02:23;;;;;;;4.10;2.30;;;8.00;99.90;;;;;;5241049;27;20301;-65
2024/04/13 03:04:52;;;;;;;2.50;1.87;;;8.00;99.90;;;;;;5240523;27;20237;-64
2024/04/13 03:07:18;;;;;;;4.33;1.80;;;8.00;99.90;;;;;;5240623;27;20268;-66
2024/04/13 03:09:44;;;;;;;6.10;2.20;;;8.00;99.90;;;;;;5239874;27;20238;-66
2024/04/13 03:12:10;;;;;;;4.50;1.97;;;8.00;99.90;;;;;;5241264;27;20234;-65
2024/04/13 03:14:36;;;;;;;2.47;1.57;;;8.00;99.90;;;;;;5227261;27;20269;-63
2024/04/13 03:17:02;;;;;;;3.47;1.93;;;8.00;99.90;;;;;;5240645;27;20295;-64
2024/04/13 03:19:29;;;;;;;4.17;2.43;;;8.10;99.90;;;;;;5239786;27;20234;-67
2024/04/13 03:21:54;;;;;;;3.40;1.80;;;8.10;99.90;;;;;;5240608;27;20238;-64
2024/04/13 03:24:20;;;;;;;3.10;1.70;;;8.00;99.90;;;;;;5240914;27;20291;-66
2024/04/13 03:26:46;;;;;;;3.07;2.03;;;8.00;99.90;;;;;;5237971;27;20288;-66
2024/04/13 03:29:12;;;;;;;5.10;2.73;;;8.00;99.90;;;;;;5229998;27;20242;-65
2024/04/13 03:31:37;;;;;;;4.30;2.10;;;8.00;99.90;;;;;;5239824;27;20280;-63
2024/04/13 03:34:04;;;;;;;3.43;1.63;;;8.00;99.90;;;;;;5226780;27;20272;-64
2024/04/13 03:36:30;;;;;;;2.63;1.60;;;8.00;99.90;;;;;;5240258;27;20245;-63
2024/04/13 03:38:56;;;;;;;2.87;2.10;;;8.00;99.90;;;;;;5240060;27;20234;-64
2024/04/13 03:41:22;;;;;;;2.40;1.63;;;8.00;99.90;;;;;;5226118;27;20283;-63
2024/04/13 03:43:48;;;;;;;3.43;1.80;;;7.90;99.90;;;;;;5266676;27;20673;-63
2024/04/13 03:46:13;;;;;;;1.40;1.30;;;7.90;99.90;;;;;;5240403;27;20280;-64
2024/04/13 03:48:42;;;;;;;1.33;1.03;;;7.90;99.90;;;;;;5239811;27;20328;-65
2024/04/13 03:51:08;;;;;;;4.43;1.93;;;7.90;99.90;;;;;;5239785;27;20284;-64
2024/04/13 03:53:35;;;;;;;2.63;1.70;;;7.90;99.90;;;;;;5240098;27;20284;-65
2024/04/13 03:56:01;;;;;;;2.33;1.50;;;7.90;99.90;;;;;;5238444;27;20275;-66
2024/04/13 03:58:27;;;;;;;3.13;1.60;;;7.90;99.90;;;;;;5240090;27;20237;-65
2024/04/13 04:00:52;;;;;;;3.53;2.10;;;7.90;99.90;;;;;;5239268;27;20288;-66
2024/04/13 04:03:18;;;;;;;3.57;1.83;;;7.90;99.90;;;;;;5240225;27;20730;-66
2024/04/13 04:05:50;;;;;;;2.67;1.30;;;7.90;99.90;;;;;;5237578;27;20276;-66
2024/04/13 04:08:16;;;;;;;1.87;1.33;;;7.90;99.90;;;;;;5230202;27;20630;-66
2024/04/13 04:10:42;;;;;;;2.40;1.53;;;7.90;99.90;;;;;;5239433;27;20752;-67
2024/04/13 04:13:08;;;;;;;1.53;1.40;;;7.90;99.90;;;;;;5240011;27;20344;-64
2024/04/13 04:15:34;;;;;;;3.37;1.37;;;7.80;99.90;;;;;;5239807;27;20632;-63
2024/04/13 04:18:00;;;;;;;2.47;1.63;;;7.80;99.90;;;;;;5239847;27;20317;-66
2024/04/13 04:20:26;;;;;;;3.63;1.87;;;7.70;99.90;;;;;;5238998;27;20238;-66
2024/04/13 04:22:52;;;;;;;3.10;2.43;;;7.80;99.90;;;;;;5225868;27;20324;-66
2024/04/13 04:25:22;;;;;;;2.00;1.30;;;7.70;99.90;;;;;;5239750;27;20603;-66
2024/04/13 04:27:48;;;;;;;3.70;2.23;;;7.70;99.90;;;;;;5239499;27;20237;-67
2024/04/13 04:30:15;;;;;;;3.03;1.73;;;7.70;99.90;;;;;;5239286;27;20268;-67
2024/04/13 04:32:41;;;;;;;2.50;2.00;;;7.60;99.90;;;;;;5239418;27;20271;-68
2024/04/13 04:35:06;;;;;;;4.30;2.00;;;7.60;99.90;;;;;;5239712;27;20238;-67
2024/04/13 04:37:32;;;;;;;2.27;1.63;;;7.60;99.90;;;;;;5239385;27;20234;-67
2024/04/13 04:39:58;;;;;;;3.97;2.17;;;7.60;99.90;;;;;;5238755;27;20272;-67
2024/04/13 04:42:24;;;;;;;3.33;1.83;;;7.60;99.90;;;;;;5239690;27;20655;-67
2024/04/13 04:44:50;;;;;;;3.00;1.73;;;7.60;99.90;;;;;;5239448;27;20613;-67
2024/04/13 04:47:18;;;;;;;2.73;1.87;;;7.70;99.90;;;;;;5239516;27;20596;-67
2024/04/13 04:49:46;;;;;;;3.97;1.83;;;7.70;99.90;;;;;;5237734;27;20730;-67
2024/04/13 04:52:11;;;;;;;5.60;2.20;;;7.70;99.90;;;;;;5232068;27;20750;-67
2024/04/13 04:54:38;;;;;;;2.83;1.73;;;7.70;99.90;;;;;;5232346;27;20284;-67
2024/04/13 04:57:04;;;;;;;3.30;2.00;;;7.70;99.90;;;;;;5225537;27;20644;-67
2024/04/13 04:59:29;;;;;;;2.97;1.70;;;7.80;99.90;;;;;;5237642;27;20265;-67
2024/04/13 05:01:56;;;;;;;2.63;1.43;;;7.70;99.90;;;;;;5238283;27;20253;-67
2024/04/13 05:04:22;;;;;;;2.27;1.73;;;7.80;99.90;;;;;;5238341;27;20234;-67
2024/04/13 05:06:47;;;;;;;4.23;1.67;;;7.80;99.90;;;;;;5239301;27;20237;-67
2024/04/13 05:09:13;;;;;;;1.77;1.43;;;7.80;99.90;;;;;;5241621;27;20995;-67
2024/04/13 05:11:39;;;;;;;3.03;1.47;;;7.80;99.90;;;;;;5239723;27;20727;-67
2024/04/13 05:14:05;;;;;;;3.00;2.13;;;7.80;99.90;;;;;;5229560;27;20242;-67
2024/04/13 05:16:31;;;;;;;3.23;1.90;;;7.90;99.90;;;;;;5241801;27;20293;-67
2024/04/13 05:18:57;;;;;;;3.27;1.63;;;7.90;99.90;;;;;;5227621;27;20285;-67
2024/04/13 05:21:22;;;;;;;2.57;1.90;;;7.90;99.90;;;;;;5227448;27;20241;-67
2024/04/13 05:23:48;;;;;;;3.57;1.90;;;7.90;99.90;;;;;;5241159;27;20628;-68
2024/04/13 05:26:13;;;;;;;1.80;1.13;;;7.90;99.90;;;;;;5232746;27;20638;-67
2024/04/13 05:28:39;;;;;;;3.60;1.63;;;7.90;99.90;;;;;;5236402;27;20753;-66
2024/04/13 05:31:09;;;;;;;2.30;1.70;;;8.00;99.90;;;;;;5239115;27;20336;-66
2024/04/13 05:33:35;;;;;;;1.47;1.20;;;8.00;99.90;;;;;;5241465;27;20234;-66
2024/04/13 05:36:02;;;;;;;2.60;1.70;;;8.00;99.90;;;;;;5235417;27;20238;-66
2024/04/13 05:38:27;;;;;;;2.97;1.63;;;8.00;99.90;;;;;;5219957;27;20233;-65
2024/04/13 05:40:53;;;;;;;2.83;1.80;;;8.10;99.90;;;;;;5240711;27;20275;-66
2024/04/13 05:43:19;;;;;;;6.30;1.93;;;8.10;99.90;;;;;;5241509;27;20352;-66
2024/04/13 05:45:45;;;;;;;2.27;1.57;;;8.20;99.90;;;;;;5227369;27;20230;-64
2024/04/13 05:48:11;;;;;;;2.90;1.83;;;8.20;99.90;;;;;;5240970;27;20288;-64
2024/04/13 05:50:37;;;;;;;2.33;1.60;;;8.30;99.90;;;;;;5226736;27;20289;-65
2024/04/13 05:53:04;;;;;;;2.60;1.43;;;8.30;99.90;;;;;;5234207;27;20237;-65
2024/04/13 05:55:30;;;;;;;2.00;1.40;;;8.30;99.90;;;;;;5226901;27;20281;-65
2024/04/13 05:57:56;;;;;;;3.27;1.40;;;8.40;99.90;;;;;;5240338;27;20328;-65
2024/04/13 06:00:22;;;;;;;2.27;1.43;;;8.30;99.90;;;;;;5240366;27;20816;-65
2024/04/13 06:02:48;;;;;;;2.33;1.73;;;8.40;99.90;;;;;;5240591;27;20582;-65
2024/04/13 06:05:14;;;;;;;2.93;1.93;;;8.40;99.90;;;;;;5240799;27;20249;-65
2024/04/13 06:07:39;;;;;;;3.30;1.67;;;8.50;99.90;;;;;;5240628;27;20237;-65
2024/04/13 06:10:07;;;;;;;2.53;1.47;;;8.50;99.90;;;;;;5233161;27;20235;-64
2024/04/13 06:12:33;;;;;;;2.00;1.43;;;8.60;99.90;;;;;;5234267;27;20234;-65
2024/04/13 06:15:00;;;;;;;3.27;1.50;;;8.70;99.90;;;;;;5238702;27;20292;-65
2024/04/13 06:17:26;;;;;;;1.70;1.40;;;8.80;99.90;;;;;;5239599;27;20268;-65
2024/04/13 06:19:51;;;;;;;2.43;1.47;;;8.90;99.90;;;;;;5239096;27;20246;-65
2024/04/13 06:22:23;;;;;;;1.67;1.27;;;9.00;99.90;;;;;;5240850;27;20276;-64
2024/04/13 06:24:52;;;;;;;3.77;1.93;;;9.00;99.90;;;;;;5237355;27;20230;-64
2024/04/13 06:27:19;;;;;;;3.20;1.97;;;9.10;99.90;;;;;;5231125;27;20234;-65
2024/04/13 06:29:48;;;;;;;3.13;1.73;;;9.10;99.90;;;;;;5239750;27;20298;-65
2024/04/13 06:32:14;;;;;;;4.23;1.73;;;9.30;99.90;;;;;;5232361;27;20289;-65
2024/04/13 06:34:40;;;;;;;2.27;1.13;;;9.40;99.90;;;;;;5234728;27;20234;-65
2024/04/13 06:37:06;;;;;;;2.60;1.67;;;9.60;99.90;;;;;;5227694;27;20233;-65
2024/04/13 06:39:31;;;;;;;2.77;1.70;;;9.70;99.90;;;;;;5239564;27;20734;-65
2024/04/13 06:41:57;;;;;;;2.73;1.73;;;9.90;99.90;;;;;;5240471;27;20245;-66
2024/04/13 06:44:22;;;;;;;3.47;1.53;;;10.00;99.90;;;;;;5240116;27;20646;-65
2024/04/13 06:46:48;;;;;;;5.13;2.43;;;10.10;99.90;;;;;;5240748;27;20284;-65
2024/04/13 06:49:14;;;;;;;3.17;1.70;;;10.20;99.90;;;;;;5240415;27;20292;-65
2024/04/13 06:51:40;;;;;;;3.50;1.97;;;10.30;99.90;;;;;;5239728;27;20281;-66
2024/04/13 06:54:05;;;;;;;3.77;1.80;;;10.50;99.90;;;;;;5240545;27;20911;-66
2024/04/13 06:56:31;;;;;;;3.73;2.20;;;10.70;99.90;;;;;;5240484;27;20599;-64
2024/04/13 06:58:56;;;;;;;2.60;1.70;;;10.70;99.90;;;;;;5226256;27;20241;-66
2024/04/13 07:01:23;;;;;;;2.63;1.67;;;10.80;99.90;;;;;;5265959;27;20246;-66
2024/04/13 07:03:48;;;;;;;4.47;1.83;;;11.10;99.90;;;;;;5237537;27;20655;-66
2024/04/13 07:06:14;;;;;;;3.00;1.33;;;11.40;99.90;;;;;;5229614;27;20245;-67
2024/04/13 07:08:42;;;;;;;3.07;1.90;;;11.70;99.90;;;;;;5239075;27;20373;-66
2024/04/13 07:11:07;;;;;;;2.80;1.50;;;11.60;99.90;;;;;;5227458;27;20245;-65
2024/04/13 07:13:33;;;;;;;3.07;1.80;;;11.90;99.90;;;;;;5240380;27;20722;-67
2024/04/13 07:15:59;;;;;;;3.30;1.80;;;12.10;99.90;;;;;;5239806;27;20280;-65
2024/04/13 07:18:25;;;;;;;4.00;1.80;;;12.40;99.90;;;;;;5239777;27;20369;-67
2024/04/13 07:20:51;;;;;;;3.93;1.90;;;12.80;99.90;;;;;;5239572;27;20245;-66
2024/04/13 07:23:16;;;;;;;3.73;1.90;;;13.00;99.90;;;;;;5226513;27;20280;-66
2024/04/13 07:25:45;;;;;;;3.57;1.63;;;13.20;99.90;;;;;;5239928;27;20246;-66
2024/04/13 07:28:10;;;;;;;3.77;1.83;;;13.50;99.90;;;;;;5239621;27;20242;-65
2024/04/13 07:30:36;;;;;;;4.83;2.40;;;13.80;99.90;;;;;;5225493;27;20345;-66
2024/04/13 07:33:02;;;;;;;5.30;2.00;;;14.20;99.90;;;;;;5252486;27;20298;-65
2024/04/13 07:35:28;;;;;;;2.07;1.60;;;14.60;99.90;;;;;;5239993;27;20288;-67
2024/04/13 07:37:54;;;;;;;3.27;2.00;;;14.80;99.90;;;;;;5235479;27;20332;-66
2024/04/13 07:40:19;;;;;;;3.77;1.87;;;15.10;99.90;;;;;;5229721;27;20237;-66
2024/04/13 07:42:45;;;;;;;5.07;1.90;;;15.30;99.90;;;;;;5239440;27;20768;-66
2024/04/13 07:45:11;;;;;;;4.73;2.03;;;15.40;99.90;;;;;;5237980;27;20237;-69
2024/04/13 07:47:36;;;;;;;4.73;1.80;;;15.50;99.90;;;;;;5239393;27;20662;-65
2024/04/13 07:50:02;;;;;;;4.10;1.90;;;15.60;99.90;;;;;;5219353;27;20364;-65
2024/04/13 07:52:27;;;;;;;2.53;1.50;;;15.80;99.90;;;;;;5231662;27;20267;-66
2024/04/13 07:54:53;;;;;;;2.97;1.80;;;15.80;99.90;;;;;;5239057;27;20296;-67
2024/04/13 07:57:19;;;;;;;4.10;1.90;;;15.90;99.90;;;;;;5238240;27;20280;-69
2024/04/13 07:59:45;;;;;;;2.90;1.77;;;15.90;99.90;;;;;;5236270;27;20250;-68
2024/04/13 08:02:11;;;;;;;4.23;2.30;;;16.10;99.90;;;;;;5239516;27;20238;-68
2024/04/13 08:04:37;;;;;;;5.03;2.47;;;16.30;99.90;;;;;;5239113;27;20288;-67
2024/04/13 08:07:02;;;;;;;3.53;2.10;;;16.50;99.90;;;;;;5238648;27;20340;-69
2024/04/13 08:09:28;;;;;;;4.10;1.83;;;16.70;99.90;;;;;;5224451;27;20246;-68
2024/04/13 08:11:54;;;;;;;2.27;1.40;;;16.60;99.90;;;;;;5238759;27;20242;-68
2024/04/13 08:14:20;;;;;;;2.57;1.40;;;16.50;99.90;;;;;;5238858;27;20639;-67
2024/04/13 08:16:45;;;;;;;1.53;1.27;;;16.90;99.90;;;;;;5238683;27;20238;-68
2024/04/13 08:19:11;;;;;;;2.43;1.40;;;17.10;99.90;;;;;;5238707;27;20305;-68
2024/04/13 08:21:37;;;;;;;3.23;2.17;;;17.20;99.90;;;;;;5238195;27;20237;-69
2024/04/13 08:24:02;;;;;;;3.20;1.70;;;17.40;99.90;;;;;;5238793;27;20745;-68
2024/04/13 08:26:28;;;;;;;2.77;1.57;;;17.50;99.90;;;;;;5238474;27;20321;-66
2024/04/13 08:28:53;;;;;;;3.10;1.70;;;17.80;99.90;;;;;;5238186;27;20309;-67
2024/04/13 08:31:19;;;;;;;3.17;1.53;;;17.90;99.90;;;;;;5237842;27;20377;-67
2024/04/13 08:33:44;;;;;;;2.47;1.60;;;18.10;99.90;;;;;;5236622;27;20237;-67
2024/04/13 08:36:10;;;;;;;3.20;1.90;;;18.40;99.90;;;;;;5238568;27;20238;-67
2024/04/13 08:38:36;;;;;;;4.90;1.73;;;18.60;99.90;;;;;;5238334;27;20234;-68
2024/04/13 08:41:12;;;;;;;3.83;1.50;;;18.90;99.90;;;;;;5237728;27;20237;-66
2024/04/13 08:43:38;;;;;;;3.83;1.90;;;18.80;99.90;;;;;;5226302;27;20798;-67
2024/04/13 08:46:07;;;;;;;4.20;1.60;;;19.20;99.90;;;;;;5241613;27;20300;-68
2024/04/13 08:48:36;;;;;;;2.37;1.70;;;19.30;99.90;;;;;;5215000;27;20677;-68
2024/04/13 08:51:03;;;;;;;2.83;1.60;;;19.70;99.90;;;;;;5227677;27;20237;-69
2024/04/13 08:53:31;;;;;;;2.93;1.60;;;19.90;99.90;;;;;;5241398;27;20234;-67
2024/04/13 08:56:00;;;;;;;11.03;2.40;;;19.90;99.90;;;;;;5237141;27;20412;-68
2024/04/13 08:58:27;;;;;;;3.50;1.57;;;19.90;99.90;;;;;;5232088;27;20333;-68
2024/04/13 09:00:59;;;;;;;3.03;1.53;;;20.10;99.90;;;;;;5241075;27;20245;-67
2024/04/13 09:03:26;;;;;;;3.70;1.40;;;20.60;99.90;;;;;;5239192;27;20276;-69
2024/04/13 09:05:52;;;;;;;2.30;1.40;;;21.00;99.90;;;;;;5225490;27;20280;-67
2024/04/13 09:08:21;;;;;;;2.17;1.40;;;21.10;99.90;;;;;;5236503;27;20357;-67
2024/04/13 09:10:48;;;;;;;1.50;0.97;;;21.50;99.90;;;;;;5230467;27;20247;-67
2024/04/13 09:13:13;;;;;;;10.37;3.90;;;21.90;99.90;;;;;;5230661;27;20289;-66
2024/04/13 09:15:40;;;;;;;2.67;1.70;;;22.10;99.90;;;;;;5226548;27;20241;-67
2024/04/13 09:18:06;;;;;;;1.83;1.47;;;22.20;99.90;;;;;;5241495;27;20863;-66
2024/04/13 09:20:32;;;;;;;2.93;1.40;;;22.30;99.90;;;;;;5234082;27;20289;-67
2024/04/13 09:22:59;;;;;;;2.00;1.40;;;22.60;99.90;;;;;;5212460;27;20291;-67
2024/04/13 09:25:24;;;;;;;2.50;1.60;;;22.70;99.90;;;;;;5239916;27;20335;-67
2024/04/13 09:28:01;;;;;;;2.20;1.53;;;22.80;99.90;;;;;;5241267;27;20763;-67
2024/04/13 09:30:28;;;;;;;1.93;1.30;;;22.80;99.90;;;;;;5240854;27;20271;-67
2024/04/13 09:33:06;;;;;;;5.80;1.40;;;22.70;99.90;;;;;;5241511;27;20671;-67
2024/04/13 09:35:32;;;;;;;2.60;1.20;;;23.00;99.90;;;;;;5228937;27;20297;-67
2024/04/13 09:37:59;;;;;;;2.97;1.60;;;23.10;99.90;;;;;;5239826;27;20246;-67
2024/04/13 09:40:25;;;;;;;1.93;1.43;;;23.20;99.90;;;;;;5240570;27;20280;-66
2024/04/13 09:42:51;;;;;;;3.80;1.70;;;23.50;99.90;;;;;;5240915;27;20756;-67
2024/04/13 09:45:18;;;;;;;1.93;1.00;;;23.60;99.90;;;;;;5241318;27;20249;-67
2024/04/13 09:47:45;;;;;;;2.47;1.00;;;23.60;99.90;;;;;;5241051;27;20726;-66
2024/04/13 09:50:11;;;;;;;2.50;1.30;;;23.90;99.90;;;;;;5267208;27;20253;-67
2024/04/13 09:52:37;;;;;;;2.90;1.30;;;24.00;99.90;;;;;;5241367;27;20342;-67
2024/04/13 09:55:04;;;;;;;1.33;0.90;;;24.00;99.90;;;;;;5261412;27;20287;-67
2024/04/13 09:57:29;;;;;;;4.40;1.30;;;23.80;99.90;;;;;;5232901;27;20317;-67
2024/04/13 09:59:55;;;;;;;1.80;1.17;;;23.80;99.90;;;;;;5240505;27;20634;-67
2024/04/13 10:02:21;;;;;;;4.23;1.53;;;24.00;99.90;;;;;;5240642;27;20301;-67
2024/04/13 10:04:47;;;;;;;1.83;1.13;;;24.10;99.90;;;;;;5226913;27;20239;-67
2024/04/13 10:07:14;;;;;;;2.03;1.40;;;24.20;99.90;;;;;;5241052;27;20257;-67
2024/04/13 10:09:42;;;;;;;4.87;1.60;;;24.10;99.90;;;;;;5239665;27;20280;-67
2024/04/13 10:12:13;;;;;;;3.13;1.13;;;24.70;99.90;;;;;;5240714;27;20284;-68
2024/04/13 10:14:41;;;;;;;1.33;1.00;;;25.10;99.90;;;;;;5240401;27;20275;-68
2024/04/13 10:17:09;;;;;;;3.07;0.87;;;25.30;99.90;;;;;;5241197;27;20288;-69
2024/04/13 10:19:35;;;;;;;1.60;1.20;;;25.10;99.90;;;;;;5226913;27;20571;-65
2024/04/13 10:22:05;;;;;;;1.43;0.50;;;24.70;99.90;;;;;;5226105;27;20237;-66
2024/04/13 10:24:31;;;;;;;3.60;1.00;;;24.20;99.90;;;;;;5240365;27;20233;-66
2024/04/13 10:27:07;;;;;;;1.27;0.60;;;24.20;99.90;;;;;;5240291;27;20272;-69
2024/04/13 10:29:42;;;;;;;2.93;0.80;;;24.10;99.90;;;;;;5237556;27;20351;-66
2024/04/13 10:32:13;;;;;;;1.90;0.60;;;24.00;99.90;;;;;;5233763;27;20226;-67
2024/04/13 10:34:39;;;;;;;1.17;0.70;;;23.80;99.90;;;;;;5234317;27;20361;-71
2024/04/13 10:37:05;;;;;;;1.00;0.80;;;23.70;99.90;;;;;;5240127;27;20643;-68
2024/04/13 10:39:30;;;;;;;1.20;0.80;;;23.70;99.90;;;;;;5251693;27;20245;-71
2024/04/13 10:41:56;;;;;;;1.83;0.90;;;23.80;99.90;;;;;;5240072;27;20344;-68
2024/04/13 10:44:25;;;;;;;0.90;0.70;;;23.60;99.90;;;;;;5239949;27;20351;-70
2024/04/13 10:46:51;;;;;;;1.17;0.90;;;23.60;99.90;;;;;;5239854;27;20246;-68
2024/04/13 10:49:20;;;;;;;5.07;1.70;;;23.60;99.90;;;;;;5239814;27;20369;-69
2024/04/13 10:51:46;;;;;;;1.63;0.70;;;23.60;99.90;;;;;;5240031;27;20309;-69
2024/04/13 10:54:13;;;;;;;2.33;0.73;;;23.70;99.90;;;;;;5226270;27;20275;-71
2024/04/13 10:56:39;;;;;;;1.40;0.80;;;23.70;99.90;;;;;;5239544;27;20784;-67
2024/04/13 10:59:08;;;;;;;2.70;0.60;;;23.80;99.90;;;;;;5226165;27;20242;-68
2024/04/13 11:01:39;;;;;;;3.47;0.90;;;23.90;99.90;;;;;;5239287;27;20733;-68
2024/04/13 11:04:05;;;;;;;2.60;0.80;;;24.10;99.90;;;;;;5265502;27;20276;-67
2024/04/13 11:06:31;;;;;;;0.80;0.60;;;24.20;99.90;;;;;;5240103;27;20238;-66
2024/04/13 11:08:57;;;;;;;0.83;0.67;;;24.20;99.90;;;;;;5235421;27;20730;-67
2024/04/13 11:11:25;;;;;;;0.97;0.73;;;24.30;99.90;;;;;;5220136;27;20235;-68
2024/04/13 11:13:51;;;;;;;4.23;0.80;;;24.40;99.90;;;;;;5220369;27;20250;-69
2024/04/13 11:16:16;;;;;;;2.53;0.73;;;24.40;99.90;;;;;;5228911;27;20280;-68
2024/04/13 11:18:42;;;;;;;4.13;0.90;;;24.10;99.90;;;;;;5265830;27;20246;-71
2024/04/13 11:21:10;;;;;;;1.47;1.00;;;24.10;99.90;;;;;;5238969;27;20238;-70
2024/04/13 11:23:36;;;;;;;3.23;0.90;;;24.10;99.90;;;;;;5225558;27;20238;-68
2024/04/13 11:26:02;;;;;;;1.00;0.70;;;24.10;99.90;;;;;;5239565;27;20233;-66
2024/04/13 11:28:28;;;;;;;1.17;0.70;;;24.10;99.90;;;;;;5226047;27;20796;-69
2024/04/13 11:30:54;;;;;;;0.83;0.80;;;23.90;99.90;;;;;;5262102;27;20250;-70
2024/04/13 11:33:19;;;;;;;4.40;0.83;;;23.70;99.90;;;;;;5229811;27;20233;-70
2024/04/13 11:35:56;;;;;;;1.23;0.70;;;23.80;99.90;;;;;;5239484;27;20366;-70
2024/04/13 11:38:22;;;;;;;1.00;0.67;;;23.50;99.90;;;;;;5238256;27;20359;-69
2024/04/13 11:40:50;;;;;;;1.77;0.80;;;23.60;99.90;;;;;;5236922;27;20236;-69
2024/04/13 11:43:16;;;;;;;1.27;0.70;;;23.60;99.90;;;;;;5228703;27;20244;-69
2024/04/13 11:45:41;;;;;;;1.77;0.70;;;23.60;99.90;;;;;;5239605;27;20280;-69
2024/04/13 11:48:07;;;;;;;1.07;0.50;;;23.60;99.90;;;;;;5225310;27;20246;-69
2024/04/13 11:50:33;;;;;;;4.13;0.80;;;23.80;99.90;;;;;;5238842;27;20280;-69
2024/04/13 11:53:00;;;;;;;1.33;0.60;;;23.80;99.90;;;;;;5239157;27;20320;-69
2024/04/13 11:55:32;;;;;;;2.47;1.10;;;23.80;99.90;;;;;;5239829;27;20286;-68
2024/04/13 11:57:57;;;;;;;2.77;0.90;;;23.60;99.90;;;;;;5234974;27;20272;-69
2024/04/13 12:00:23;;;;;;;1.83;0.90;;;23.50;99.90;;;;;;5229073;27;20602;-69
2024/04/13 12:02:49;;;;;;;1.27;0.63;;;23.50;99.90;;;;;;5239979;27;20807;-69
2024/04/13 12:05:15;;;;;;;2.63;1.00;;;23.50;99.90;;;;;;5238986;27;20244;-68
2024/04/13 12:07:43;;;;;;;2.97;1.00;;;23.70;99.90;;;;;;5239531;27;20272;-67
2024/04/13 12:10:09;;;;;;;2.00;0.87;;;23.70;99.90;;;;;;5238369;27;20232;-67
2024/04/13 12:12:34;;;;;;;3.43;0.93;;;23.70;99.90;;;;;;5238835;27;20348;-68
2024/04/13 12:15:00;;;;;;;0.93;0.60;;;23.60;99.90;;;;;;5238683;27;20837;-67
2024/04/13 12:17:29;;;;;;;1.40;0.97;;;23.90;99.90;;;;;;5226733;27;20727;-67
2024/04/13 12:19:54;;;;;;;1.40;0.80;;;23.90;99.90;;;;;;5235492;27;20237;-68
2024/04/13 12:22:20;;;;;;;0.90;0.60;;;24.10;99.90;;;;;;5238870;27;20276;-68
2024/04/13 12:24:45;;;;;;;3.87;0.70;;;24.40;99.90;;;;;;5238573;27;20275;-67
2024/04/13 12:27:11;;;;;;;2.53;0.80;;;24.40;99.90;;;;;;5231513;27;20251;-67
2024/04/13 12:29:36;;;;;;;3.57;0.80;;;24.50;99.90;;;;;;5231413;27;20852;-68
2024/04/13 12:32:03;;;;;;;1.80;0.90;;;24.30;99.90;;;;;;5238404;27;20237;-67
2024/04/13 12:34:29;;;;;;;1.90;0.63;;;24.40;99.90;;;;;;5236798;27;20640;-68
2024/04/13 12:36:54;;;;;;;1.27;0.60;;;24.40;99.90;;;;;;5238424;27;20238;-66
2024/04/13 12:39:20;;;;;;;0.93;0.50;;;24.40;99.90;;;;;;5229099;27;20837;-68
2024/04/13 12:41:45;;;;;;;1.00;0.60;;;24.20;99.90;;;;;;5234532;27;20263;-67
2024/04/13 12:44:11;;;;;;;2.17;0.83;;;24.50;99.90;;;;;;5238839;27;20234;-67
2024/04/13 12:46:38;;;;;;;1.20;0.63;;;24.80;99.90;;;;;;5238248;27;20291;-68
2024/04/13 12:49:04;;;;;;;1.17;0.80;;;24.80;99.90;;;;;;5210410;27;20288;-67